createdAt,value
2022-12-28T00:01:33.055Z,67.03
2022-12-28T00:04:05.161Z,68.12
2022-12-28T00:06:34.342Z,65.72
2022-12-28T00:09:02.612Z,76.40
2022-12-28T00:11:31.459Z,77.10
2022-12-28T00:14:02.016Z,94.32
2022-12-28T00:16:37.699Z,103.20
2022-12-28T00:19:15.173Z,94.05
2022-12-28T00:21:45.016Z,98.52
2022-12-28T00:24:20.924Z,92.45
2022-12-28T00:26:50.382Z,81.75
2022-12-28T00:29:18.841Z,83.70
2022-12-28T00:31:47.043Z,82.05
2022-12-28T00:34:15.291Z,85.53
2022-12-28T00:37:09.756Z,85.87
2022-12-28T00:39:12.767Z,84.47
2022-12-28T00:41:40.409Z,85.40
2022-12-28T00:44:09.510Z,93.22
2022-12-28T00:46:37.481Z,91.78
2022-12-28T00:49:06.655Z,79.45
2022-12-28T00:51:34.443Z,83.15
2022-12-28T00:54:02.369Z,83.12
2022-12-28T00:56:30.279Z,81.05
2022-12-28T00:58:59.764Z,84.30
2022-12-28T01:01:28.971Z,88.15
2022-12-28T01:04:01.757Z,80.77
2022-12-28T01:06:29.910Z,100.10
2022-12-28T01:08:58.356Z,113.12
2022-12-28T01:11:30.206Z,107.30
2022-12-28T01:14:01.016Z,100.67
2022-12-28T01:16:32.793Z,112.97
2022-12-28T01:19:04.900Z,92.75
2022-12-28T01:21:34.239Z,85.05
2022-12-28T01:24:04.334Z,76.15
2022-12-28T01:26:34.548Z,79.32
2022-12-28T01:29:03.545Z,63.50
2022-12-28T01:31:33.568Z,70.30
2022-12-28T01:34:02.645Z,68.55
2022-12-28T01:36:34.325Z,66.55
2022-12-28T01:39:05.882Z,65.75
2022-12-28T01:41:40.163Z,64.42
2022-12-28T01:44:13.345Z,63.00
2022-12-28T01:46:50.401Z,62.00
2022-12-28T01:49:26.681Z,59.98
2022-12-28T01:52:24.160Z,52.75
2022-12-28T01:55:00.107Z,55.40
2022-12-28T01:57:33.439Z,58.20
2022-12-28T02:00:06.155Z,56.30
2022-12-28T02:02:36.414Z,48.63
2022-12-28T02:05:05.763Z,43.87
2022-12-28T02:07:53.144Z,41.48
2022-12-28T02:10:43.733Z,41.45
2022-12-28T02:12:53.828Z,35.03
2022-12-28T02:15:23.409Z,36.30
2022-12-28T02:17:51.489Z,36.40
2022-12-28T02:20:19.648Z,30.82
2022-12-28T02:23:07.827Z,26.95
2022-12-28T02:26:02.428Z,29.15
2022-12-28T02:29:15.127Z,41.68
2022-12-28T02:31:51.153Z,40.20
2022-12-28T02:34:26.780Z,39.05
2022-12-28T02:37:01.508Z,35.20
2022-12-28T02:39:37.734Z,37.28
2022-12-28T02:42:09.242Z,36.00
2022-12-28T02:44:57.220Z,40.52
2022-12-28T02:47:43.347Z,32.90
2022-12-28T02:50:15.337Z,37.73
2022-12-28T02:52:54.385Z,34.08
2022-12-28T02:56:02.787Z,34.67
2022-12-28T02:58:52.169Z,32.83
2022-12-28T03:01:45.050Z,36.58
2022-12-28T03:04:53.435Z,36.70
2022-12-28T03:07:47.974Z,35.95
2022-12-28T03:10:32.917Z,35.73
2022-12-28T03:13:10.967Z,26.77
2022-12-28T03:15:38.967Z,35.30
2022-12-28T03:18:34.690Z,28.40
2022-12-28T03:21:25.094Z,27.67
2022-12-28T03:24:13.429Z,25.45
2022-12-28T03:27:05.297Z,27.32
2022-12-28T03:29:58.445Z,30.80
2022-12-28T03:32:26.358Z,46.33
2022-12-28T03:34:55.697Z,36.53
2022-12-28T03:37:38.046Z,35.63
2022-12-28T03:40:34.769Z,32.05
2022-12-28T03:43:32.598Z,30.57
2022-12-28T03:46:04.877Z,31.73
2022-12-28T03:48:36.868Z,29.90
2022-12-28T03:51:05.539Z,37.83
2022-12-28T03:53:43.283Z,35.88
2022-12-28T03:56:17.939Z,35.08
2022-12-28T03:58:48.635Z,35.75
2022-12-28T04:01:17.444Z,31.33
2022-12-28T04:03:45.912Z,28.85
2022-12-28T04:06:17.262Z,25.30
2022-12-28T04:08:46.077Z,26.85
2022-12-28T04:11:14.431Z,23.45
2022-12-28T04:13:43.914Z,25.77
2022-12-28T04:16:14.466Z,23.65
2022-12-28T04:18:43.441Z,25.00
2022-12-28T04:21:16.067Z,24.07
2022-12-28T04:23:44.993Z,27.98
2022-12-28T04:26:20.889Z,30.23
2022-12-28T04:28:50.573Z,26.60
2022-12-28T04:31:21.331Z,25.90
2022-12-28T04:33:51.168Z,23.22
2022-12-28T04:36:19.292Z,26.15
2022-12-28T04:38:47.085Z,26.50
2022-12-28T04:41:14.584Z,24.15
2022-12-28T04:43:42.379Z,29.70
2022-12-28T04:46:17.503Z,28.35
2022-12-28T04:51:25.937Z,30.12
2022-12-28T04:53:56.124Z,29.98
2022-12-28T04:56:25.958Z,29.90
2022-12-28T04:59:00.121Z,30.68
2022-12-28T05:01:28.289Z,29.63
2022-12-28T05:03:59.276Z,39.38
2022-12-28T05:06:27.223Z,39.08
2022-12-28T05:08:56.824Z,30.43
2022-12-28T05:11:28.412Z,24.60
2022-12-28T05:13:57.283Z,27.77
2022-12-28T05:16:28.021Z,26.52
2022-12-28T05:18:57.476Z,30.60
2022-12-28T05:21:27.846Z,30.08
2022-12-28T05:23:56.861Z,25.68
2022-12-28T05:26:28.374Z,31.17
2022-12-28T05:28:58.116Z,31.75
2022-12-28T05:31:26.896Z,24.27
2022-12-28T05:33:55.108Z,27.30
2022-12-28T05:36:26.238Z,30.77
2022-12-28T05:38:55.612Z,29.18
2022-12-28T05:41:27.452Z,29.50
2022-12-28T05:43:58.099Z,28.12
2022-12-28T05:46:30.268Z,29.55
2022-12-28T05:49:01.400Z,30.25
2022-12-28T05:51:31.753Z,30.35
2022-12-28T05:54:03.195Z,27.30
2022-12-28T05:56:32.329Z,31.02
2022-12-28T05:59:03.481Z,29.18
2022-12-28T06:01:35.594Z,31.85
2022-12-28T06:04:08.121Z,30.95
2022-12-28T06:06:36.075Z,34.33
2022-12-28T06:09:04.061Z,34.65
2022-12-28T06:11:32.441Z,35.50
2022-12-28T06:14:02.870Z,34.88
2022-12-28T06:16:33.998Z,42.27
2022-12-28T06:19:16.271Z,41.28
2022-12-28T06:21:44.158Z,41.35
2022-12-28T06:24:13.509Z,69.15
2022-12-28T06:26:41.749Z,50.12
2022-12-28T06:29:10.078Z,68.37
2022-12-28T06:31:42.801Z,87.15
2022-12-28T06:34:10.403Z,57.83
2022-12-28T06:36:42.231Z,49.95
2022-12-28T06:39:13.630Z,41.08
2022-12-28T06:41:42.432Z,51.58
2022-12-28T06:44:13.167Z,35.35
2022-12-28T06:46:41.640Z,33.58
2022-12-28T06:49:11.304Z,31.25
2022-12-28T06:51:41.382Z,37.88
2022-12-28T06:54:10.251Z,33.28
2022-12-28T06:56:39.058Z,34.30
2022-12-28T06:59:07.115Z,36.95
2022-12-28T07:01:39.733Z,63.25
2022-12-28T07:04:09.627Z,156.28
2022-12-28T07:06:43.573Z,60.78
2022-12-28T07:09:14.806Z,45.95
2022-12-28T07:11:44.242Z,57.10
2022-12-28T07:14:15.473Z,49.27
2022-12-28T07:16:43.385Z,53.23
2022-12-28T07:19:11.459Z,61.30
2022-12-28T07:21:40.313Z,55.15
2022-12-28T07:24:11.097Z,101.15
2022-12-28T07:26:38.926Z,194.67
2022-12-28T07:29:08.444Z,137.30
2022-12-28T07:31:45.430Z,108.40
2022-12-28T07:34:10.453Z,49.48
2022-12-28T07:36:38.133Z,47.23
2022-12-28T07:39:06.118Z,49.18
2022-12-28T07:41:35.673Z,67.08
2022-12-28T07:44:05.343Z,43.83
2022-12-28T07:46:35.791Z,65.57
2022-12-28T07:49:04.271Z,65.62
2022-12-28T07:51:35.529Z,57.80
2022-12-28T07:54:05.238Z,29.30
2022-12-28T07:59:05.178Z,36.88
2022-12-28T08:01:35.725Z,43.30
2022-12-28T08:04:11.191Z,35.85
2022-12-28T08:06:41.794Z,42.08
2022-12-28T08:09:12.965Z,40.43
2022-12-28T08:11:44.269Z,43.25
2022-12-28T08:14:13.541Z,31.20
2022-12-28T08:16:44.060Z,27.90
2022-12-28T08:19:13.760Z,26.57
2022-12-28T08:21:44.916Z,29.18
2022-12-28T08:24:17.409Z,24.32
2022-12-28T08:26:47.788Z,25.75
2022-12-28T08:29:20.214Z,28.10
2022-12-28T08:31:49.980Z,26.33
2022-12-28T08:34:28.826Z,27.35
2022-12-28T08:36:58.276Z,23.45
2022-12-28T08:39:28.894Z,24.23
2022-12-28T08:41:58.080Z,27.07
2022-12-28T08:44:26.904Z,26.35
2022-12-28T08:46:58.224Z,31.05
2022-12-28T08:49:30.559Z,30.23
2022-12-28T08:52:00.776Z,28.00
2022-12-28T08:54:29.245Z,33.88
2022-12-28T08:56:57.464Z,23.90
2022-12-28T08:59:26.383Z,23.85
2022-12-28T09:01:54.321Z,22.73
2022-12-28T09:04:22.735Z,29.42
2022-12-28T09:06:50.988Z,22.48
2022-12-28T09:09:22.637Z,22.10
2022-12-28T09:11:50.635Z,26.05
2022-12-28T09:14:23.817Z,22.70
2022-12-28T09:16:48.420Z,23.85
2022-12-28T09:19:16.315Z,19.32
2022-12-28T09:21:47.940Z,19.55
2022-12-28T09:24:16.414Z,16.48
2022-12-28T09:26:44.494Z,13.75
2022-12-28T09:29:14.002Z,16.20
2022-12-28T09:31:44.025Z,20.48
2022-12-28T09:36:44.795Z,21.48
2022-12-28T09:39:20.191Z,33.45
2022-12-28T09:42:10.100Z,18.45
2022-12-28T09:45:00.056Z,27.40
2022-12-28T09:47:38.153Z,20.45
2022-12-28T09:50:22.336Z,20.20
2022-12-28T09:53:07.492Z,16.35
2022-12-28T09:55:38.118Z,21.17
2022-12-28T09:58:14.248Z,21.62
2022-12-28T10:00:49.302Z,21.77
2022-12-28T10:03:27.936Z,22.98
2022-12-28T10:05:57.599Z,21.00
2022-12-28T10:08:27.986Z,22.20
2022-12-28T10:11:00.126Z,23.20
2022-12-28T10:13:54.158Z,21.70
2022-12-28T10:16:13.935Z,22.67
2022-12-28T10:18:41.364Z,20.17
2022-12-28T10:21:09.798Z,16.12
2022-12-28T10:24:04.777Z,9.85
2022-12-28T10:26:16.312Z,7.40
2022-12-28T10:28:58.461Z,10.15
2022-12-28T10:31:38.719Z,9.93
2022-12-28T10:34:22.201Z,9.45
2022-12-28T10:36:52.530Z,8.53
2022-12-28T10:39:29.810Z,6.08
2022-12-28T10:42:03.010Z,10.48
2022-12-28T10:44:41.579Z,8.03
2022-12-28T10:47:18.329Z,7.87
2022-12-28T10:50:10.539Z,10.75
2022-12-28T10:52:22.577Z,17.40
2022-12-28T10:55:07.441Z,16.93
2022-12-28T10:57:29.771Z,12.37
2022-12-28T11:00:22.388Z,15.70
2022-12-28T11:02:50.306Z,16.40
2022-12-28T11:05:23.019Z,13.18
2022-12-28T11:08:04.185Z,14.83
2022-12-28T11:10:32.397Z,6.92
2022-12-28T11:13:01.493Z,6.28
2022-12-28T11:15:33.707Z,7.37
2022-12-28T11:18:16.872Z,13.68
2022-12-28T11:20:51.237Z,22.30
2022-12-28T11:23:25.681Z,7.43
2022-12-28T11:25:53.616Z,6.40
2022-12-28T11:28:22.905Z,6.60
2022-12-28T11:30:52.235Z,6.62
2022-12-28T11:33:42.859Z,9.38
2022-12-28T11:36:23.865Z,7.37
2022-12-28T11:38:54.622Z,12.40
2022-12-28T11:41:34.019Z,11.75
2022-12-28T11:44:05.560Z,14.03
2022-12-28T11:46:37.831Z,10.30
2022-12-28T11:49:27.598Z,21.25
2022-12-28T11:52:22.602Z,22.65
2022-12-28T11:54:55.069Z,18.55
2022-12-28T11:57:40.446Z,12.13
2022-12-28T12:00:23.817Z,41.20
2022-12-28T12:03:00.013Z,19.40
2022-12-28T12:05:43.187Z,10.03
2022-12-28T12:08:20.630Z,9.35
2022-12-28T12:10:51.881Z,10.60
2022-12-28T12:13:31.061Z,5.20
2022-12-28T12:16:07.211Z,8.63
2022-12-28T12:18:50.862Z,7.42
2022-12-28T12:21:33.563Z,7.85
2022-12-28T12:24:29.463Z,11.38
2022-12-28T12:27:17.286Z,3.83
2022-12-28T12:30:05.311Z,4.78
2022-12-28T12:32:44.635Z,5.00
2022-12-28T12:35:23.974Z,17.05
2022-12-28T12:38:05.352Z,16.32
2022-12-28T12:41:14.967Z,4.42
2022-12-28T12:43:50.092Z,5.47
2022-12-28T12:46:41.249Z,17.85
2022-12-28T12:49:39.679Z,10.40
2022-12-28T12:52:46.731Z,19.45
2022-12-28T12:58:28.099Z,11.63
2022-12-28T13:01:27.562Z,9.75
2022-12-28T13:04:02.064Z,6.67
2022-12-28T13:06:37.352Z,11.20
2022-12-28T13:11:39.316Z,13.30
2022-12-28T13:14:19.292Z,13.20
2022-12-28T13:16:51.109Z,9.48
2022-12-28T13:19:23.405Z,17.07
2022-12-28T13:21:52.396Z,13.98
2022-12-28T13:24:31.022Z,19.62
2022-12-28T13:27:00.366Z,12.37
2022-12-28T13:29:37.090Z,8.10
2022-12-28T13:32:05.478Z,10.85
2022-12-28T13:34:34.758Z,8.28
2022-12-28T13:37:15.738Z,10.18
2022-12-28T13:39:44.012Z,9.90
2022-12-28T13:42:18.818Z,15.30
2022-12-28T13:44:59.479Z,15.23
2022-12-28T13:47:49.516Z,14.23
2022-12-28T13:50:29.475Z,8.40
2022-12-28T13:53:08.365Z,19.80
2022-12-28T13:55:44.276Z,9.25
2022-12-28T13:58:19.853Z,10.72
2022-12-28T14:00:49.922Z,12.70
2022-12-28T14:03:19.099Z,10.18
2022-12-28T14:05:53.509Z,10.30
2022-12-28T14:08:22.537Z,13.10
2022-12-28T14:10:51.860Z,9.25
2022-12-28T14:13:20.452Z,11.85
2022-12-28T14:15:49.365Z,13.68
2022-12-28T14:18:18.417Z,14.38
2022-12-28T14:20:54.364Z,11.48
2022-12-28T14:23:30.878Z,18.05
2022-12-28T14:26:07.260Z,20.60
2022-12-28T14:28:43.522Z,22.07
2022-12-28T14:31:14.343Z,29.75
2022-12-28T14:33:50.356Z,22.40
2022-12-28T14:36:22.018Z,26.37
2022-12-28T14:39:01.149Z,32.83
2022-12-28T14:41:36.852Z,42.75
2022-12-28T14:44:09.456Z,82.60
2022-12-28T14:46:39.831Z,109.17
2022-12-28T14:49:31.917Z,126.95
2022-12-28T14:52:17.773Z,152.05
2022-12-28T14:54:50.739Z,197.07
2022-12-28T14:57:36.398Z,212.23
2022-12-28T15:00:09.186Z,214.53
2022-12-28T15:02:41.038Z,238.90
2022-12-28T15:05:40.108Z,346.10
2022-12-28T15:08:09.678Z,325.80
2022-12-28T15:10:58.058Z,229.18
2022-12-28T15:13:27.018Z,236.15
2022-12-28T15:16:00.851Z,235.97
2022-12-28T15:18:30.095Z,293.65
2022-12-28T15:20:57.871Z,357.62
2022-12-28T15:23:25.399Z,372.63
2022-12-28T15:25:53.455Z,262.52
2022-12-28T15:28:25.851Z,199.97
2022-12-28T15:30:53.805Z,137.90
2022-12-28T15:33:21.520Z,271.20
2022-12-28T15:35:49.311Z,160.48
2022-12-28T15:38:17.165Z,206.10
2022-12-28T15:40:46.742Z,167.00
2022-12-28T15:43:14.536Z,139.68
2022-12-28T15:45:42.117Z,118.60
2022-12-28T15:48:09.543Z,147.57
2022-12-28T15:50:37.047Z,226.27
2022-12-28T15:53:05.110Z,198.97
2022-12-28T15:55:33.391Z,274.67
2022-12-28T15:58:01.290Z,157.62
2022-12-28T16:00:29.123Z,128.23
2022-12-28T16:02:57.302Z,96.35
2022-12-28T16:05:25.392Z,96.45
2022-12-28T16:07:53.052Z,109.03
2022-12-28T16:10:21.722Z,90.70
2022-12-28T16:12:49.367Z,99.17
2022-12-28T16:15:19.414Z,129.40
2022-12-28T16:17:56.867Z,146.80
2022-12-28T16:20:17.333Z,134.55
2022-12-28T16:22:47.461Z,109.63
2022-12-28T16:25:18.092Z,97.45
2022-12-28T16:27:45.904Z,88.50
2022-12-28T16:30:14.214Z,107.27
2022-12-28T16:32:43.328Z,93.97
2022-12-28T16:35:11.324Z,97.67
2022-12-28T16:37:39.596Z,81.97
2022-12-28T16:40:09.271Z,80.50
2022-12-28T16:42:36.942Z,86.65
2022-12-28T16:45:05.406Z,104.50
2022-12-28T16:47:33.289Z,109.85
2022-12-28T16:50:01.045Z,86.37
2022-12-28T16:52:29.236Z,107.52
2022-12-28T16:54:57.527Z,98.45
2022-12-28T16:57:26.034Z,93.25
2022-12-28T16:59:53.657Z,87.70
2022-12-28T17:02:23.772Z,87.78
2022-12-28T17:04:51.563Z,86.45
2022-12-28T17:07:18.924Z,64.85
2022-12-28T17:09:50.301Z,63.87
2022-12-28T17:12:19.635Z,59.40
2022-12-28T17:14:49.638Z,93.65
2022-12-28T17:17:17.763Z,111.72
2022-12-28T17:19:45.937Z,128.55
2022-12-28T17:22:13.942Z,80.07
2022-12-28T17:24:42.271Z,110.20
2022-12-28T17:27:17.204Z,89.13
2022-12-28T17:29:40.248Z,90.90
2022-12-28T17:32:08.565Z,79.65
2022-12-28T17:34:38.223Z,77.65
2022-12-28T17:37:06.141Z,82.05
2022-12-28T17:39:40.021Z,86.85
2022-12-28T17:42:06.187Z,88.12
2022-12-28T17:44:34.982Z,101.45
2022-12-28T17:47:02.629Z,70.47
2022-12-28T17:49:30.591Z,75.72
2022-12-28T17:51:58.523Z,84.92
2022-12-28T17:54:26.291Z,86.63
2022-12-28T17:56:53.898Z,85.60
2022-12-28T17:59:22.896Z,75.95
2022-12-28T18:01:51.526Z,90.77
2022-12-28T18:04:19.394Z,94.15
2022-12-28T18:06:47.400Z,89.28
2022-12-28T18:09:15.241Z,95.85
2022-12-28T18:11:44.017Z,81.37
2022-12-28T18:14:12.581Z,74.17
2022-12-28T18:16:40.145Z,70.40
2022-12-28T18:19:07.884Z,63.13
2022-12-28T18:21:35.735Z,71.53
2022-12-28T18:24:03.896Z,66.40
2022-12-28T18:26:50.592Z,71.55
2022-12-28T18:29:22.073Z,74.47
2022-12-28T18:31:54.211Z,82.65
2022-12-28T18:34:21.824Z,88.97
2022-12-28T18:36:49.892Z,91.75
2022-12-28T18:39:17.768Z,81.25
2022-12-28T18:41:45.718Z,79.62
2022-12-28T18:44:13.362Z,76.75
2022-12-28T18:46:41.025Z,83.15
2022-12-28T18:49:09.030Z,75.92
2022-12-28T18:51:36.892Z,67.85
2022-12-28T18:54:05.043Z,65.70
2022-12-28T18:56:32.991Z,77.78
2022-12-28T18:59:00.786Z,71.07
2022-12-28T19:04:00.118Z,80.83
2022-12-28T19:06:28.943Z,81.45
2022-12-28T19:09:00.477Z,76.28
2022-12-28T19:11:28.913Z,83.70
2022-12-28T19:13:57.267Z,72.60
2022-12-28T19:16:32.026Z,66.85
2022-12-28T19:19:05.200Z,67.45
2022-12-28T19:21:40.075Z,70.22
2022-12-28T19:24:15.310Z,73.70
2022-12-28T19:26:45.469Z,71.85
2022-12-28T19:29:18.330Z,69.40
2022-12-28T19:31:45.841Z,68.90
2022-12-28T19:34:16.050Z,72.40
2022-12-28T19:36:43.931Z,73.22
2022-12-28T19:39:12.054Z,84.87
2022-12-28T19:41:40.451Z,92.75
2022-12-28T19:44:08.316Z,83.05
2022-12-28T19:46:42.659Z,86.63
2022-12-28T19:49:10.527Z,92.72
2022-12-28T19:51:38.704Z,84.55
2022-12-28T19:54:07.391Z,78.87
2022-12-28T19:56:35.355Z,81.20
2022-12-28T19:59:06.900Z,82.40
2022-12-28T20:01:35.824Z,82.17
2022-12-28T20:04:11.982Z,75.30
2022-12-28T20:06:34.967Z,77.30
2022-12-28T20:09:02.902Z,76.92
2022-12-28T20:11:30.796Z,82.17
2022-12-28T20:14:02.551Z,88.90
2022-12-28T20:16:32.969Z,89.30
2022-12-28T20:19:01.268Z,78.83
2022-12-28T20:21:29.067Z,80.20
2022-12-28T20:23:56.852Z,74.75
2022-12-28T20:26:26.537Z,79.07
2022-12-28T20:28:56.381Z,80.65
2022-12-28T20:31:25.514Z,79.40
2022-12-28T20:33:53.705Z,71.10
2022-12-28T20:36:27.945Z,70.00
2022-12-28T20:38:56.587Z,81.32
2022-12-28T20:41:48.929Z,78.78
2022-12-28T20:44:25.080Z,74.37
2022-12-28T20:46:54.788Z,73.40
2022-12-28T20:49:29.120Z,69.58
2022-12-28T20:51:57.694Z,79.55
2022-12-28T20:54:26.156Z,68.97
2022-12-28T20:56:55.910Z,77.87
2022-12-28T20:59:25.344Z,72.65
2022-12-28T21:01:53.763Z,66.85
2022-12-28T21:04:25.348Z,66.28
2022-12-28T21:06:54.422Z,68.05
2022-12-28T21:09:22.642Z,67.45
2022-12-28T21:11:50.543Z,65.40
2022-12-28T21:14:18.213Z,64.12
2022-12-28T21:16:46.453Z,63.73
2022-12-28T21:19:14.456Z,57.98
2022-12-28T21:21:42.137Z,60.70
2022-12-28T21:24:10.064Z,54.40
2022-12-28T21:26:38.702Z,59.48
2022-12-28T21:29:06.530Z,68.35
2022-12-28T21:31:36.178Z,68.75
2022-12-28T21:34:03.870Z,65.17
2022-12-28T21:36:31.648Z,68.97
2022-12-28T21:39:00.788Z,76.33
2022-12-28T21:41:46.706Z,70.00
2022-12-28T21:44:22.084Z,68.80
2022-12-28T21:46:53.509Z,60.00
2022-12-28T21:49:21.376Z,54.38
2022-12-28T21:51:49.872Z,51.25
2022-12-28T21:54:21.083Z,52.67
2022-12-28T21:56:53.548Z,52.10
2022-12-28T21:59:25.020Z,48.73
2022-12-28T22:02:13.647Z,44.18
2022-12-28T22:05:03.687Z,48.80
2022-12-28T22:07:34.344Z,55.80
2022-12-28T22:10:20.482Z,47.67
2022-12-28T22:12:48.327Z,49.90
2022-12-28T22:15:38.371Z,49.85
2022-12-28T22:18:24.694Z,45.45
2022-12-28T22:20:41.114Z,57.93
2022-12-28T22:23:09.619Z,64.27
2022-12-28T22:25:37.421Z,59.90
2022-12-28T22:28:06.524Z,47.65
2022-12-28T22:30:38.879Z,48.68
2022-12-28T22:33:06.778Z,43.30
2022-12-28T22:35:35.034Z,42.75
2022-12-28T22:38:02.844Z,41.18
2022-12-28T22:40:31.073Z,39.03
2022-12-28T22:42:59.159Z,45.75
2022-12-28T22:45:27.714Z,44.45
2022-12-28T22:47:58.206Z,45.40
2022-12-28T22:50:28.447Z,48.00
2022-12-28T22:52:57.846Z,51.98
2022-12-28T22:55:25.822Z,54.53
2022-12-28T22:57:53.689Z,53.00
2022-12-28T23:00:21.687Z,42.62
2022-12-28T23:02:49.887Z,41.83
2022-12-28T23:05:17.741Z,41.45
2022-12-28T23:07:45.486Z,38.65
2022-12-28T23:10:13.269Z,50.30
2022-12-28T23:12:41.127Z,46.98
2022-12-28T23:15:19.122Z,48.20
2022-12-28T23:17:48.571Z,38.88
2022-12-28T23:20:35.862Z,41.23
2022-12-28T23:23:22.445Z,36.28
2022-12-28T23:26:08.669Z,41.05
2022-12-28T23:28:37.071Z,32.53
2022-12-28T23:31:06.226Z,38.50
2022-12-28T23:33:36.032Z,37.55
2022-12-28T23:36:05.263Z,38.08
2022-12-28T23:38:33.731Z,32.63
2022-12-28T23:41:25.394Z,37.03
2022-12-28T23:43:53.112Z,43.42
2022-12-28T23:46:21.015Z,40.08
2022-12-28T23:48:48.871Z,38.45
2022-12-28T23:51:17.483Z,35.73
2022-12-28T23:53:45.471Z,35.90
2022-12-28T23:56:13.398Z,34.30
2022-12-28T23:58:40.868Z,34.45
